sensor_id;sensor_type;location;lat;lon;timestamp;P1;durP1;ratioP1;P2;durP2;ratioP2
6723;SDS011;3399;52.530;13.304;2022-12-07T00:02:20;8.90;;;7.53;;
6723;SDS011;3399;52.530;13.304;2022-12-07T00:04:48;12.23;;;8.73;;
6723;SDS011;3399;52.530;13.304;2022-12-07T00:07:14;12.30;;;8.17;;
6723;SDS011;3399;52.530;13.304;2022-12-07T00:09:39;10.63;;;8.03;;
6723;SDS011;3399;52.530;13.304;2022-12-07T00:12:06;12.87;;;9.23;;
6723;SDS011;3399;52.530;13.304;2022-12-07T00:14:32;11.10;;;8.77;;
6723;SDS011;3399;52.530;13.304;2022-12-07T00:16:58;9.27;;;8.37;;
6723;SDS011;3399;52.530;13.304;2022-12-07T00:19:23;9.30;;;7.47;;
6723;SDS011;3399;52.530;13.304;2022-12-07T00:21:49;9.30;;;8.03;;
6723;SDS011;3399;52.530;13.304;2022-12-07T00:24:14;8.47;;;7.47;;
6723;SDS011;3399;52.530;13.304;2022-12-07T00:26:40;10.97;;;7.87;;
6723;SDS011;3399;52.530;13.304;2022-12-07T00:29:07;12.03;;;7.40;;
6723;SDS011;3399;52.530;13.304;2022-12-07T00:31:38;10.23;;;7.77;;
6723;SDS011;3399;52.530;13.304;2022-12-07T00:34:04;8.53;;;7.00;;
6723;SDS011;3399;52.530;13.304;2022-12-07T00:36:36;11.23;;;7.53;;
6723;SDS011;3399;52.530;13.304;2022-12-07T00:39:02;9.83;;;7.80;;
6723;SDS011;3399;52.530;13.304;2022-12-07T00:41:28;9.03;;;7.80;;
6723;SDS011;3399;52.530;13.304;2022-12-07T00:43:54;9.07;;;7.53;;
6723;SDS011;3399;52.530;13.304;2022-12-07T00:46:20;8.90;;;6.93;;
6723;SDS011;3399;52.530;13.304;2022-12-07T00:48:47;8.57;;;6.90;;
6723;SDS011;3399;52.530;13.304;2022-12-07T00:51:14;7.83;;;6.87;;
6723;SDS011;3399;52.530;13.304;2022-12-07T00:53:40;10.67;;;7.50;;
6723;SDS011;3399;52.530;13.304;2022-12-07T00:56:06;7.93;;;6.97;;
6723;SDS011;3399;52.530;13.304;2022-12-07T00:58:39;7.70;;;6.67;;
6723;SDS011;3399;52.530;13.304;2022-12-07T01:01:05;9.27;;;7.27;;
6723;SDS011;3399;52.530;13.304;2022-12-07T01:03:32;8.50;;;6.40;;
6723;SDS011;3399;52.530;13.304;2022-12-07T01:05:58;9.10;;;7.13;;
6723;SDS011;3399;52.530;13.304;2022-12-07T01:08:24;7.33;;;6.63;;
6723;SDS011;3399;52.530;13.304;2022-12-07T01:10:57;7.73;;;6.63;;
6723;SDS011;3399;52.530;13.304;2022-12-07T01:13:27;8.20;;;6.77;;
6723;SDS011;3399;52.530;13.304;2022-12-07T01:15:55;7.77;;;6.97;;
6723;SDS011;3399;52.530;13.304;2022-12-07T01:18:23;7.77;;;6.70;;
6723;SDS011;3399;52.530;13.304;2022-12-07T01:20:57;6.97;;;6.27;;
6723;SDS011;3399;52.530;13.304;2022-12-07T01:23:26;8.43;;;6.43;;
6723;SDS011;3399;52.530;13.304;2022-12-07T01:25:56;8.10;;;6.60;;
6723;SDS011;3399;52.530;13.304;2022-12-07T01:28:22;6.97;;;5.87;;
6723;SDS011;3399;52.530;13.304;2022-12-07T01:33:27;6.13;;;5.40;;
6723;SDS011;3399;52.530;13.304;2022-12-07T01:35:54;7.30;;;5.97;;
6723;SDS011;3399;52.530;13.304;2022-12-07T01:38:25;6.47;;;5.23;;
6723;SDS011;3399;52.530;13.304;2022-12-07T01:40:54;5.73;;;5.13;;
6723;SDS011;3399;52.530;13.304;2022-12-07T01:43:20;6.20;;;5.60;;
6723;SDS011;3399;52.530;13.304;2022-12-07T01:45:47;6.73;;;5.10;;
6723;SDS011;3399;52.530;13.304;2022-12-07T01:48:13;5.60;;;5.00;;
6723;SDS011;3399;52.530;13.304;2022-12-07T01:50:42;6.17;;;5.57;;
6723;SDS011;3399;52.530;13.304;2022-12-07T01:53:10;6.60;;;5.13;;
6723;SDS011;3399;52.530;13.304;2022-12-07T01:55:37;6.17;;;4.57;;
6723;SDS011;3399;52.530;13.304;2022-12-07T01:58:05;5.73;;;4.83;;
6723;SDS011;3399;52.530;13.304;2022-12-07T02:00:31;10.07;;;5.10;;
6723;SDS011;3399;52.530;13.304;2022-12-07T02:03:00;5.90;;;5.30;;
6723;SDS011;3399;52.530;13.304;2022-12-07T02:05:32;5.80;;;5.17;;
6723;SDS011;3399;52.530;13.304;2022-12-07T02:08:00;6.70;;;4.57;;
6723;SDS011;3399;52.530;13.304;2022-12-07T02:10:27;7.47;;;5.60;;
6723;SDS011;3399;52.530;13.304;2022-12-07T02:12:58;5.83;;;4.87;;
6723;SDS011;3399;52.530;13.304;2022-12-07T02:24:25;6.20;;;4.70;;
6723;SDS011;3399;52.530;13.304;2022-12-07T02:30:12;6.27;;;5.53;;
6723;SDS011;3399;52.530;13.304;2022-12-07T02:33:06;7.90;;;5.43;;
6723;SDS011;3399;52.530;13.304;2022-12-07T02:35:34;6.90;;;5.70;;
6723;SDS011;3399;52.530;13.304;2022-12-07T02:38:17;6.27;;;5.67;;
6723;SDS011;3399;52.530;13.304;2022-12-07T02:43:46;7.53;;;5.87;;
6723;SDS011;3399;52.530;13.304;2022-12-07T02:46:17;8.20;;;5.93;;
6723;SDS011;3399;52.530;13.304;2022-12-07T02:48:47;7.83;;;5.90;;
6723;SDS011;3399;52.530;13.304;2022-12-07T02:51:14;7.67;;;5.47;;
6723;SDS011;3399;52.530;13.304;2022-12-07T02:53:43;7.97;;;6.27;;
6723;SDS011;3399;52.530;13.304;2022-12-07T02:58:50;9.13;;;6.53;;
6723;SDS011;3399;52.530;13.304;2022-12-07T03:03:58;7.90;;;5.50;;
6723;SDS011;3399;52.530;13.304;2022-12-07T03:06:39;7.53;;;6.73;;
6723;SDS011;3399;52.530;13.304;2022-12-07T03:09:22;9.50;;;7.60;;
6723;SDS011;3399;52.530;13.304;2022-12-07T03:12:20;10.73;;;7.30;;
6723;SDS011;3399;52.530;13.304;2022-12-07T03:14:56;8.63;;;7.73;;
6723;SDS011;3399;52.530;13.304;2022-12-07T03:17:31;10.53;;;7.90;;
6723;SDS011;3399;52.530;13.304;2022-12-07T03:20:00;12.97;;;8.90;;
6723;SDS011;3399;52.530;13.304;2022-12-07T03:22:29;11.20;;;7.43;;
6723;SDS011;3399;52.530;13.304;2022-12-07T03:24:58;12.10;;;8.57;;
6723;SDS011;3399;52.530;13.304;2022-12-07T03:27:27;10.63;;;8.07;;
6723;SDS011;3399;52.530;13.304;2022-12-07T03:30:24;9.83;;;7.30;;
6723;SDS011;3399;52.530;13.304;2022-12-07T03:33:05;12.37;;;8.50;;
6723;SDS011;3399;52.530;13.304;2022-12-07T03:35:37;13.47;;;9.60;;
6723;SDS011;3399;52.530;13.304;2022-12-07T03:38:17;11.53;;;8.83;;
6723;SDS011;3399;52.530;13.304;2022-12-07T03:40:54;15.03;;;9.43;;
6723;SDS011;3399;52.530;13.304;2022-12-07T03:43:25;13.57;;;8.73;;
6723;SDS011;3399;52.530;13.304;2022-12-07T03:46:00;12.30;;;8.70;;
6723;SDS011;3399;52.530;13.304;2022-12-07T03:49:06;10.80;;;9.27;;
6723;SDS011;3399;52.530;13.304;2022-12-07T03:51:52;12.13;;;9.03;;
6723;SDS011;3399;52.530;13.304;2022-12-07T03:55:11;14.90;;;8.83;;
6723;SDS011;3399;52.530;13.304;2022-12-07T03:57:42;13.67;;;10.27;;
6723;SDS011;3399;52.530;13.304;2022-12-07T04:00:10;12.63;;;8.93;;
6723;SDS011;3399;52.530;13.304;2022-12-07T04:02:36;18.73;;;11.97;;
6723;SDS011;3399;52.530;13.304;2022-12-07T04:05:02;18.20;;;11.87;;
6723;SDS011;3399;52.530;13.304;2022-12-07T04:07:28;15.30;;;10.80;;
6723;SDS011;3399;52.530;13.304;2022-12-07T04:09:53;13.07;;;9.37;;
6723;SDS011;3399;52.530;13.304;2022-12-07T04:12:20;16.47;;;12.63;;
6723;SDS011;3399;52.530;13.304;2022-12-07T04:14:45;15.07;;;10.80;;
6723;SDS011;3399;52.530;13.304;2022-12-07T04:17:11;15.63;;;10.90;;
6723;SDS011;3399;52.530;13.304;2022-12-07T04:19:36;14.27;;;10.77;;
6723;SDS011;3399;52.530;13.304;2022-12-07T04:22:03;15.67;;;11.63;;
6723;SDS011;3399;52.530;13.304;2022-12-07T04:24:29;17.13;;;11.27;;
6723;SDS011;3399;52.530;13.304;2022-12-07T04:26:55;15.83;;;11.20;;
6723;SDS011;3399;52.530;13.304;2022-12-07T04:29:21;19.40;;;13.73;;
6723;SDS011;3399;52.530;13.304;2022-12-07T04:31:47;19.23;;;12.60;;
6723;SDS011;3399;52.530;13.304;2022-12-07T04:34:13;21.57;;;14.57;;
6723;SDS011;3399;52.530;13.304;2022-12-07T04:36:40;18.53;;;13.70;;
6723;SDS011;3399;52.530;13.304;2022-12-07T04:39:07;22.07;;;14.50;;
6723;SDS011;3399;52.530;13.304;2022-12-07T04:41:38;22.07;;;14.50;;
6723;SDS011;3399;52.530;13.304;2022-12-07T04:44:04;19.73;;;14.37;;
6723;SDS011;3399;52.530;13.304;2022-12-07T04:46:32;22.50;;;15.47;;
6723;SDS011;3399;52.530;13.304;2022-12-07T04:48:58;22.93;;;17.63;;
6723;SDS011;3399;52.530;13.304;2022-12-07T04:51:24;26.57;;;17.70;;
6723;SDS011;3399;52.530;13.304;2022-12-07T04:53:52;25.93;;;18.13;;
6723;SDS011;3399;52.530;13.304;2022-12-07T04:56:18;27.67;;;17.83;;
6723;SDS011;3399;52.530;13.304;2022-12-07T04:58:45;23.40;;;16.93;;
6723;SDS011;3399;52.530;13.304;2022-12-07T05:01:12;27.53;;;15.67;;
6723;SDS011;3399;52.530;13.304;2022-12-07T05:03:38;24.20;;;16.57;;
6723;SDS011;3399;52.530;13.304;2022-12-07T05:06:04;25.10;;;18.47;;
6723;SDS011;3399;52.530;13.304;2022-12-07T05:08:30;27.17;;;17.90;;
6723;SDS011;3399;52.530;13.304;2022-12-07T05:10:57;27.97;;;18.47;;
6723;SDS011;3399;52.530;13.304;2022-12-07T05:13:23;32.40;;;19.97;;
6723;SDS011;3399;52.530;13.304;2022-12-07T05:15:48;28.90;;;19.93;;
6723;SDS011;3399;52.530;13.304;2022-12-07T05:18:14;31.97;;;19.20;;
6723;SDS011;3399;52.530;13.304;2022-12-07T05:20:40;33.77;;;20.47;;
6723;SDS011;3399;52.530;13.304;2022-12-07T05:23:06;27.30;;;17.97;;
6723;SDS011;3399;52.530;13.304;2022-12-07T05:25:32;32.60;;;19.53;;
6723;SDS011;3399;52.530;13.304;2022-12-07T05:27:58;34.00;;;20.70;;
6723;SDS011;3399;52.530;13.304;2022-12-07T05:30:24;31.83;;;20.70;;
6723;SDS011;3399;52.530;13.304;2022-12-07T05:32:50;28.30;;;19.13;;
6723;SDS011;3399;52.530;13.304;2022-12-07T05:35:16;34.40;;;19.83;;
6723;SDS011;3399;52.530;13.304;2022-12-07T05:37:42;35.63;;;20.53;;
6723;SDS011;3399;52.530;13.304;2022-12-07T05:40:07;35.20;;;21.90;;
6723;SDS011;3399;52.530;13.304;2022-12-07T05:42:33;32.40;;;20.67;;
6723;SDS011;3399;52.530;13.304;2022-12-07T05:44:59;29.67;;;18.67;;
6723;SDS011;3399;52.530;13.304;2022-12-07T05:47:24;33.17;;;20.17;;
6723;SDS011;3399;52.530;13.304;2022-12-07T05:49:50;28.50;;;19.00;;
6723;SDS011;3399;52.530;13.304;2022-12-07T05:52:16;32.60;;;19.53;;
6723;SDS011;3399;52.530;13.304;2022-12-07T05:54:41;35.03;;;19.33;;
6723;SDS011;3399;52.530;13.304;2022-12-07T05:57:07;26.93;;;17.43;;
6723;SDS011;3399;52.530;13.304;2022-12-07T05:59:32;27.47;;;19.07;;
6723;SDS011;3399;52.530;13.304;2022-12-07T06:02:02;30.87;;;18.13;;
6723;SDS011;3399;52.530;13.304;2022-12-07T06:04:31;29.90;;;19.47;;
6723;SDS011;3399;52.530;13.304;2022-12-07T06:06:59;28.37;;;17.40;;
6723;SDS011;3399;52.530;13.304;2022-12-07T06:09:25;28.40;;;19.30;;
6723;SDS011;3399;52.530;13.304;2022-12-07T06:11:52;30.07;;;19.50;;
6723;SDS011;3399;52.530;13.304;2022-12-07T06:14:36;39.13;;;21.67;;
6723;SDS011;3399;52.530;13.304;2022-12-07T06:17:02;31.37;;;19.87;;
6723;SDS011;3399;52.530;13.304;2022-12-07T06:19:29;31.67;;;19.03;;
6723;SDS011;3399;52.530;13.304;2022-12-07T06:21:54;29.83;;;19.97;;
6723;SDS011;3399;52.530;13.304;2022-12-07T06:24:20;29.30;;;19.03;;
6723;SDS011;3399;52.530;13.304;2022-12-07T06:26:46;29.43;;;18.60;;
6723;SDS011;3399;52.530;13.304;2022-12-07T06:29:11;30.37;;;18.00;;
6723;SDS011;3399;52.530;13.304;2022-12-07T06:31:37;28.33;;;18.83;;
6723;SDS011;3399;52.530;13.304;2022-12-07T06:34:04;32.30;;;19.63;;
6723;SDS011;3399;52.530;13.304;2022-12-07T06:36:32;30.77;;;19.10;;
6723;SDS011;3399;52.530;13.304;2022-12-07T06:38:57;32.47;;;19.33;;
6723;SDS011;3399;52.530;13.304;2022-12-07T06:41:23;29.90;;;19.40;;
6723;SDS011;3399;52.530;13.304;2022-12-07T06:43:49;28.50;;;18.47;;
6723;SDS011;3399;52.530;13.304;2022-12-07T06:46:15;33.33;;;19.37;;
6723;SDS011;3399;52.530;13.304;2022-12-07T06:48:41;28.80;;;19.10;;
6723;SDS011;3399;52.530;13.304;2022-12-07T06:51:08;34.47;;;20.33;;
6723;SDS011;3399;52.530;13.304;2022-12-07T06:53:34;31.43;;;21.23;;
6723;SDS011;3399;52.530;13.304;2022-12-07T06:56:00;28.93;;;19.70;;
6723;SDS011;3399;52.530;13.304;2022-12-07T06:58:25;33.33;;;21.53;;
6723;SDS011;3399;52.530;13.304;2022-12-07T07:00:51;35.10;;;22.70;;
6723;SDS011;3399;52.530;13.304;2022-12-07T07:03:17;31.97;;;20.20;;
6723;SDS011;3399;52.530;13.304;2022-12-07T07:05:43;33.53;;;23.30;;
6723;SDS011;3399;52.530;13.304;2022-12-07T07:08:09;28.90;;;18.67;;
6723;SDS011;3399;52.530;13.304;2022-12-07T07:10:35;28.03;;;19.57;;
6723;SDS011;3399;52.530;13.304;2022-12-07T07:13:01;29.27;;;20.60;;
6723;SDS011;3399;52.530;13.304;2022-12-07T07:15:27;32.60;;;19.13;;
6723;SDS011;3399;52.530;13.304;2022-12-07T07:17:52;30.97;;;19.93;;
6723;SDS011;3399;52.530;13.304;2022-12-07T07:20:18;39.90;;;20.00;;
6723;SDS011;3399;52.530;13.304;2022-12-07T07:22:43;27.60;;;18.10;;
6723;SDS011;3399;52.530;13.304;2022-12-07T07:25:09;32.20;;;20.93;;
6723;SDS011;3399;52.530;13.304;2022-12-07T07:27:35;28.43;;;17.47;;
6723;SDS011;3399;52.530;13.304;2022-12-07T07:30:00;25.47;;;17.37;;
6723;SDS011;3399;52.530;13.304;2022-12-07T07:32:26;25.00;;;16.17;;
6723;SDS011;3399;52.530;13.304;2022-12-07T07:34:51;22.30;;;15.50;;
6723;SDS011;3399;52.530;13.304;2022-12-07T07:37:17;25.13;;;14.47;;
6723;SDS011;3399;52.530;13.304;2022-12-07T07:39:42;20.50;;;13.53;;
6723;SDS011;3399;52.530;13.304;2022-12-07T07:42:08;23.83;;;15.37;;
6723;SDS011;3399;52.530;13.304;2022-12-07T07:44:34;20.33;;;13.83;;
6723;SDS011;3399;52.530;13.304;2022-12-07T07:47:00;21.90;;;14.00;;
6723;SDS011;3399;52.530;13.304;2022-12-07T07:49:25;24.63;;;14.57;;
6723;SDS011;3399;52.530;13.304;2022-12-07T07:51:51;18.17;;;12.20;;
6723;SDS011;3399;52.530;13.304;2022-12-07T07:54:17;19.30;;;12.60;;
6723;SDS011;3399;52.530;13.304;2022-12-07T07:56:42;17.80;;;12.97;;
6723;SDS011;3399;52.530;13.304;2022-12-07T07:59:08;17.57;;;13.20;;
6723;SDS011;3399;52.530;13.304;2022-12-07T08:01:33;18.40;;;11.37;;
6723;SDS011;3399;52.530;13.304;2022-12-07T08:04:00;18.03;;;10.07;;
6723;SDS011;3399;52.530;13.304;2022-12-07T08:06:25;16.03;;;10.47;;
6723;SDS011;3399;52.530;13.304;2022-12-07T08:08:51;13.93;;;10.57;;
6723;SDS011;3399;52.530;13.304;2022-12-07T08:11:17;14.23;;;9.77;;
6723;SDS011;3399;52.530;13.304;2022-12-07T08:13:45;12.37;;;8.07;;
6723;SDS011;3399;52.530;13.304;2022-12-07T08:16:14;12.37;;;7.47;;
6723;SDS011;3399;52.530;13.304;2022-12-07T08:18:40;9.70;;;7.10;;
6723;SDS011;3399;52.530;13.304;2022-12-07T08:21:07;11.30;;;7.77;;
6723;SDS011;3399;52.530;13.304;2022-12-07T08:23:36;11.80;;;7.03;;
6723;SDS011;3399;52.530;13.304;2022-12-07T08:26:03;6.17;;;5.57;;
6723;SDS011;3399;52.530;13.304;2022-12-07T08:28:29;9.10;;;7.30;;
6723;SDS011;3399;52.530;13.304;2022-12-07T08:30:58;5.30;;;4.67;;
6723;SDS011;3399;52.530;13.304;2022-12-07T08:33:25;7.33;;;5.20;;
6723;SDS011;3399;52.530;13.304;2022-12-07T08:35:51;8.63;;;4.83;;
6723;SDS011;3399;52.530;13.304;2022-12-07T08:38:16;5.67;;;4.63;;
6723;SDS011;3399;52.530;13.304;2022-12-07T08:40:42;7.20;;;4.40;;
6723;SDS011;3399;52.530;13.304;2022-12-07T08:43:07;6.87;;;3.73;;
6723;SDS011;3399;52.530;13.304;2022-12-07T08:45:33;3.30;;;3.00;;
6723;SDS011;3399;52.530;13.304;2022-12-07T08:48:02;3.17;;;2.80;;
6723;SDS011;3399;52.530;13.304;2022-12-07T08:50:32;2.60;;;2.40;;
6723;SDS011;3399;52.530;13.304;2022-12-07T08:52:59;3.43;;;3.00;;
6723;SDS011;3399;52.530;13.304;2022-12-07T08:55:25;3.57;;;2.37;;
6723;SDS011;3399;52.530;13.304;2022-12-07T08:57:52;2.47;;;2.27;;
6723;SDS011;3399;52.530;13.304;2022-12-07T09:00:18;2.50;;;2.30;;
6723;SDS011;3399;52.530;13.304;2022-12-07T09:02:44;2.10;;;2.00;;
6723;SDS011;3399;52.530;13.304;2022-12-07T09:05:10;2.50;;;2.10;;
6723;SDS011;3399;52.530;13.304;2022-12-07T09:07:36;2.47;;;1.87;;
6723;SDS011;3399;52.530;13.304;2022-12-07T09:10:03;2.33;;;1.83;;
6723;SDS011;3399;52.530;13.304;2022-12-07T09:12:29;4.80;;;1.90;;
6723;SDS011;3399;52.530;13.304;2022-12-07T09:14:55;2.30;;;2.10;;
6723;SDS011;3399;52.530;13.304;2022-12-07T09:17:21;1.90;;;1.67;;
6723;SDS011;3399;52.530;13.304;2022-12-07T09:19:46;2.17;;;2.00;;
6723;SDS011;3399;52.530;13.304;2022-12-07T09:22:12;2.10;;;2.00;;
6723;SDS011;3399;52.530;13.304;2022-12-07T09:24:37;2.13;;;1.70;;
6723;SDS011;3399;52.530;13.304;2022-12-07T09:27:03;2.50;;;2.30;;
6723;SDS011;3399;52.530;13.304;2022-12-07T09:29:28;3.33;;;2.50;;
6723;SDS011;3399;52.530;13.304;2022-12-07T09:31:54;3.23;;;2.57;;
6723;SDS011;3399;52.530;13.304;2022-12-07T09:34:19;2.17;;;2.07;;
6723;SDS011;3399;52.530;13.304;2022-12-07T09:36:45;2.33;;;2.13;;
6723;SDS011;3399;52.530;13.304;2022-12-07T09:39:11;2.80;;;2.33;;
6723;SDS011;3399;52.530;13.304;2022-12-07T09:41:40;3.10;;;2.80;;
6723;SDS011;3399;52.530;13.304;2022-12-07T09:44:09;2.43;;;1.90;;
6723;SDS011;3399;52.530;13.304;2022-12-07T09:46:38;2.50;;;1.93;;
6723;SDS011;3399;52.530;13.304;2022-12-07T09:49:05;2.07;;;1.83;;
6723;SDS011;3399;52.530;13.304;2022-12-07T09:51:42;5.23;;;1.70;;
6723;SDS011;3399;52.530;13.304;2022-12-07T09:54:08;1.47;;;1.37;;
6723;SDS011;3399;52.530;13.304;2022-12-07T09:56:38;1.83;;;1.73;;
6723;SDS011;3399;52.530;13.304;2022-12-07T09:59:03;2.97;;;1.73;;
6723;SDS011;3399;52.530;13.304;2022-12-07T10:01:30;2.97;;;2.53;;
6723;SDS011;3399;52.530;13.304;2022-12-07T10:04:02;2.40;;;2.20;;
6723;SDS011;3399;52.530;13.304;2022-12-07T10:06:37;1.70;;;1.60;;
6723;SDS011;3399;52.530;13.304;2022-12-07T10:09:08;2.10;;;2.00;;
6723;SDS011;3399;52.530;13.304;2022-12-07T10:11:35;2.30;;;2.10;;
6723;SDS011;3399;52.530;13.304;2022-12-07T10:14:29;2.73;;;2.30;;
6723;SDS011;3399;52.530;13.304;2022-12-07T10:16:55;2.37;;;2.17;;
6723;SDS011;3399;52.530;13.304;2022-12-07T10:19:25;2.93;;;1.90;;
6723;SDS011;3399;52.530;13.304;2022-12-07T10:24:24;2.83;;;2.17;;
6723;SDS011;3399;52.530;13.304;2022-12-07T10:26:53;2.83;;;2.60;;
6723;SDS011;3399;52.530;13.304;2022-12-07T10:29:32;4.07;;;2.63;;
6723;SDS011;3399;52.530;13.304;2022-12-07T10:32:04;5.40;;;1.93;;
6723;SDS011;3399;52.530;13.304;2022-12-07T10:34:50;2.77;;;2.10;;
6723;SDS011;3399;52.530;13.304;2022-12-07T10:37:39;2.60;;;2.33;;
6723;SDS011;3399;52.530;13.304;2022-12-07T10:40:10;2.37;;;2.17;;
6723;SDS011;3399;52.530;13.304;2022-12-07T10:43:04;3.10;;;2.20;;
6723;SDS011;3399;52.530;13.304;2022-12-07T10:45:38;3.33;;;3.03;;
6723;SDS011;3399;52.530;13.304;2022-12-07T10:51:27;3.13;;;2.83;;
6723;SDS011;3399;52.530;13.304;2022-12-07T10:54:10;3.60;;;3.27;;
6723;SDS011;3399;52.530;13.304;2022-12-07T10:56:46;3.23;;;2.93;;
6723;SDS011;3399;52.530;13.304;2022-12-07T10:59:34;3.63;;;3.37;;
6723;SDS011;3399;52.530;13.304;2022-12-07T11:07:40;6.43;;;3.73;;
6723;SDS011;3399;52.530;13.304;2022-12-07T11:12:55;5.00;;;3.37;;
6723;SDS011;3399;52.530;13.304;2022-12-07T11:18:24;4.20;;;3.80;;
6723;SDS011;3399;52.530;13.304;2022-12-07T11:26:47;5.47;;;3.43;;
6723;SDS011;3399;52.530;13.304;2022-12-07T11:29:35;4.27;;;3.60;;
6723;SDS011;3399;52.530;13.304;2022-12-07T11:32:17;4.10;;;3.10;;
6723;SDS011;3399;52.530;13.304;2022-12-07T11:35:19;3.57;;;3.27;;
6723;SDS011;3399;52.530;13.304;2022-12-07T11:38:21;5.23;;;3.73;;
6723;SDS011;3399;52.530;13.304;2022-12-07T11:40:53;3.80;;;3.50;;
6723;SDS011;3399;52.530;13.304;2022-12-07T11:43:37;4.53;;;4.13;;
6723;SDS011;3399;52.530;13.304;2022-12-07T11:46:19;4.63;;;4.23;;
6723;SDS011;3399;52.530;13.304;2022-12-07T11:51:53;6.53;;;3.97;;
6723;SDS011;3399;52.530;13.304;2022-12-07T11:54:26;5.83;;;3.90;;
6723;SDS011;3399;52.530;13.304;2022-12-07T11:56:54;3.90;;;3.57;;
6723;SDS011;3399;52.530;13.304;2022-12-07T11:59:31;2.97;;;2.53;;
6723;SDS011;3399;52.530;13.304;2022-12-07T12:02:11;3.83;;;3.17;;
6723;SDS011;3399;52.530;13.304;2022-12-07T12:07:37;5.40;;;4.17;;
6723;SDS011;3399;52.530;13.304;2022-12-07T12:10:05;4.97;;;3.30;;
6723;SDS011;3399;52.530;13.304;2022-12-07T12:15:42;4.87;;;3.10;;
6723;SDS011;3399;52.530;13.304;2022-12-07T12:18:45;4.30;;;3.10;;
6723;SDS011;3399;52.530;13.304;2022-12-07T12:21:40;4.90;;;3.80;;
6723;SDS011;3399;52.530;13.304;2022-12-07T12:24:12;4.93;;;2.63;;
6723;SDS011;3399;52.530;13.304;2022-12-07T12:26:48;6.30;;;4.10;;
6723;SDS011;3399;52.530;13.304;2022-12-07T12:29:21;4.10;;;2.27;;
6723;SDS011;3399;52.530;13.304;2022-12-07T12:32:06;2.47;;;1.90;;
6723;SDS011;3399;52.530;13.304;2022-12-07T12:34:39;5.03;;;3.10;;
6723;SDS011;3399;52.530;13.304;2022-12-07T12:42:51;2.87;;;2.07;;
6723;SDS011;3399;52.530;13.304;2022-12-07T12:45:22;5.93;;;2.03;;
6723;SDS011;3399;52.530;13.304;2022-12-07T12:47:53;5.43;;;2.10;;
6723;SDS011;3399;52.530;13.304;2022-12-07T12:50:33;6.60;;;2.67;;
6723;SDS011;3399;52.530;13.304;2022-12-07T12:53:12;7.73;;;2.50;;
6723;SDS011;3399;52.530;13.304;2022-12-07T13:00:49;3.70;;;2.37;;
6723;SDS011;3399;52.530;13.304;2022-12-07T13:03:52;4.80;;;2.57;;
6723;SDS011;3399;52.530;13.304;2022-12-07T13:08:57;3.10;;;2.80;;
6723;SDS011;3399;52.530;13.304;2022-12-07T13:11:31;3.37;;;2.67;;
6723;SDS011;3399;52.530;13.304;2022-12-07T13:17:02;6.80;;;2.10;;
6723;SDS011;3399;52.530;13.304;2022-12-07T13:19:52;5.33;;;2.30;;
6723;SDS011;3399;52.530;13.304;2022-12-07T13:24:57;7.67;;;2.67;;
6723;SDS011;3399;52.530;13.304;2022-12-07T13:27:47;10.53;;;2.50;;
6723;SDS011;3399;52.530;13.304;2022-12-07T13:30:19;3.83;;;1.83;;
6723;SDS011;3399;52.530;13.304;2022-12-07T13:32:57;5.23;;;2.13;;
6723;SDS011;3399;52.530;13.304;2022-12-07T13:35:27;2.13;;;1.93;;
6723;SDS011;3399;52.530;13.304;2022-12-07T13:37:54;2.47;;;1.80;;
6723;SDS011;3399;52.530;13.304;2022-12-07T13:40:21;5.13;;;1.93;;
6723;SDS011;3399;52.530;13.304;2022-12-07T13:42:47;2.30;;;1.73;;
6723;SDS011;3399;52.530;13.304;2022-12-07T13:45:26;2.97;;;1.90;;
6723;SDS011;3399;52.530;13.304;2022-12-07T13:48:20;2.10;;;1.70;;
6723;SDS011;3399;52.530;13.304;2022-12-07T13:50:56;5.30;;;1.93;;
6723;SDS011;3399;52.530;13.304;2022-12-07T13:53:22;2.50;;;2.07;;
6723;SDS011;3399;52.530;13.304;2022-12-07T13:55:48;6.00;;;3.63;;
6723;SDS011;3399;52.530;13.304;2022-12-07T13:58:14;5.07;;;2.60;;
6723;SDS011;3399;52.530;13.304;2022-12-07T14:00:40;4.97;;;2.43;;
6723;SDS011;3399;52.530;13.304;2022-12-07T14:05:42;2.20;;;2.00;;
6723;SDS011;3399;52.530;13.304;2022-12-07T14:10:41;1.97;;;1.80;;
6723;SDS011;3399;52.530;13.304;2022-12-07T14:13:36;3.17;;;1.80;;
6723;SDS011;3399;52.530;13.304;2022-12-07T14:16:54;2.87;;;2.03;;
6723;SDS011;3399;52.530;13.304;2022-12-07T14:18:57;4.10;;;1.90;;
6723;SDS011;3399;52.530;13.304;2022-12-07T14:21:25;4.80;;;2.50;;
6723;SDS011;3399;52.530;13.304;2022-12-07T14:26:42;4.67;;;2.73;;
6723;SDS011;3399;52.530;13.304;2022-12-07T14:31:50;5.83;;;2.73;;
6723;SDS011;3399;52.530;13.304;2022-12-07T14:34:16;4.00;;;2.13;;
6723;SDS011;3399;52.530;13.304;2022-12-07T14:36:44;6.47;;;2.13;;
6723;SDS011;3399;52.530;13.304;2022-12-07T14:39:09;3.83;;;2.00;;
6723;SDS011;3399;52.530;13.304;2022-12-07T14:41:35;5.13;;;2.10;;
6723;SDS011;3399;52.530;13.304;2022-12-07T14:44:15;12.13;;;2.70;;
6723;SDS011;3399;52.530;13.304;2022-12-07T14:46:42;5.10;;;2.30;;
6723;SDS011;3399;52.530;13.304;2022-12-07T14:49:07;6.17;;;2.87;;
6723;SDS011;3399;52.530;13.304;2022-12-07T14:51:33;5.53;;;2.33;;
6723;SDS011;3399;52.530;13.304;2022-12-07T14:54:03;5.83;;;2.53;;
6723;SDS011;3399;52.530;13.304;2022-12-07T14:56:30;3.10;;;1.97;;
6723;SDS011;3399;52.530;13.304;2022-12-07T14:58:55;2.43;;;1.80;;
6723;SDS011;3399;52.530;13.304;2022-12-07T15:01:21;3.33;;;2.23;;
6723;SDS011;3399;52.530;13.304;2022-12-07T15:03:46;4.40;;;2.13;;
6723;SDS011;3399;52.530;13.304;2022-12-07T15:06:16;4.80;;;2.10;;
6723;SDS011;3399;52.530;13.304;2022-12-07T15:08:43;5.83;;;2.47;;
6723;SDS011;3399;52.530;13.304;2022-12-07T15:11:15;6.00;;;1.80;;
6723;SDS011;3399;52.530;13.304;2022-12-07T15:13:42;6.63;;;2.00;;
6723;SDS011;3399;52.530;13.304;2022-12-07T15:16:26;4.43;;;1.97;;
6723;SDS011;3399;52.530;13.304;2022-12-07T15:18:52;1.80;;;1.70;;
6723;SDS011;3399;52.530;13.304;2022-12-07T15:21:17;5.60;;;2.00;;
6723;SDS011;3399;52.530;13.304;2022-12-07T15:23:43;4.73;;;2.20;;
6723;SDS011;3399;52.530;13.304;2022-12-07T15:26:11;4.70;;;2.17;;
6723;SDS011;3399;52.530;13.304;2022-12-07T15:28:37;5.73;;;1.70;;
6723;SDS011;3399;52.530;13.304;2022-12-07T15:31:02;4.67;;;1.90;;
6723;SDS011;3399;52.530;13.304;2022-12-07T15:33:28;4.87;;;1.70;;
6723;SDS011;3399;52.530;13.304;2022-12-07T15:35:53;7.53;;;2.10;;
6723;SDS011;3399;52.530;13.304;2022-12-07T15:38:19;2.43;;;1.70;;
6723;SDS011;3399;52.530;13.304;2022-12-07T15:40:48;3.23;;;1.70;;
6723;SDS011;3399;52.530;13.304;2022-12-07T15:43:13;1.53;;;1.43;;
6723;SDS011;3399;52.530;13.304;2022-12-07T15:45:58;4.13;;;1.70;;
6723;SDS011;3399;52.530;13.304;2022-12-07T15:48:24;6.93;;;2.17;;
6723;SDS011;3399;52.530;13.304;2022-12-07T15:50:50;5.93;;;2.00;;
6723;SDS011;3399;52.530;13.304;2022-12-07T15:53:15;3.00;;;1.87;;
6723;SDS011;3399;52.530;13.304;2022-12-07T15:55:41;7.17;;;2.33;;
6723;SDS011;3399;52.530;13.304;2022-12-07T15:58:06;5.00;;;2.67;;
6723;SDS011;3399;52.530;13.304;2022-12-07T16:00:32;4.87;;;2.03;;
6723;SDS011;3399;52.530;13.304;2022-12-07T16:02:58;4.07;;;2.40;;
6723;SDS011;3399;52.530;13.304;2022-12-07T16:05:29;4.13;;;2.30;;
6723;SDS011;3399;52.530;13.304;2022-12-07T16:07:55;3.33;;;2.20;;
6723;SDS011;3399;52.530;13.304;2022-12-07T16:10:20;7.83;;;2.63;;
6723;SDS011;3399;52.530;13.304;2022-12-07T16:12:46;8.90;;;2.90;;
6723;SDS011;3399;52.530;13.304;2022-12-07T16:15:11;2.07;;;1.83;;
6723;SDS011;3399;52.530;13.304;2022-12-07T16:17:37;3.63;;;2.20;;
6723;SDS011;3399;52.530;13.304;2022-12-07T16:20:03;7.03;;;3.20;;
6723;SDS011;3399;52.530;13.304;2022-12-07T16:22:29;2.90;;;2.33;;
6723;SDS011;3399;52.530;13.304;2022-12-07T16:24:54;9.73;;;3.33;;
6723;SDS011;3399;52.530;13.304;2022-12-07T16:27:20;7.23;;;2.57;;
6723;SDS011;3399;52.530;13.304;2022-12-07T16:29:45;5.30;;;2.13;;
6723;SDS011;3399;52.530;13.304;2022-12-07T16:32:11;4.10;;;2.23;;
6723;SDS011;3399;52.530;13.304;2022-12-07T16:34:36;3.47;;;2.20;;